sensor_id;sensor_type;location;lat;lon;timestamp;pressure;altitude;pressure_sealevel;temperature;humidity
7335;BME280;3708;42.632;23.378;2023-06-10T00:00:06;93946.53;;;22.02;61.54
7335;BME280;3708;42.632;23.378;2023-06-10T00:02:33;93941.53;;;22.05;61.70
7335;BME280;3708;42.632;23.378;2023-06-10T00:05:00;93946.50;;;22.06;60.95
7335;BME280;3708;42.632;23.378;2023-06-10T00:07:27;93950.25;;;22.09;60.19
7335;BME280;3708;42.632;23.378;2023-06-10T00:09:54;93953.28;;;22.11;59.67
7335;BME280;3708;42.632;23.378;2023-06-10T00:12:22;93950.25;;;22.09;59.32
7335;BME280;3708;42.632;23.378;2023-06-10T00:14:49;93953.38;;;22.04;58.86
7335;BME280;3708;42.632;23.378;2023-06-10T00:17:20;93948.91;;;21.93;59.24
7335;BME280;3708;42.632;23.378;2023-06-10T00:19:49;93947.22;;;21.66;59.92
7335;BME280;3708;42.632;23.378;2023-06-10T00:22:16;93942.56;;;21.77;59.42
7335;BME280;3708;42.632;23.378;2023-06-10T00:24:45;93944.16;;;21.71;59.10
7335;BME280;3708;42.632;23.378;2023-06-10T00:27:13;93947.91;;;21.77;59.12
7335;BME280;3708;42.632;23.378;2023-06-10T00:29:40;93941.34;;;21.88;58.91
7335;BME280;3708;42.632;23.378;2023-06-10T00:32:07;93951.13;;;21.98;58.69
7335;BME280;3708;42.632;23.378;2023-06-10T00:34:35;93952.81;;;21.82;59.38
7335;BME280;3708;42.632;23.378;2023-06-10T00:37:03;93959.69;;;21.79;59.94
7335;BME280;3708;42.632;23.378;2023-06-10T00:39:29;93960.28;;;21.97;59.75
7335;BME280;3708;42.632;23.378;2023-06-10T00:41:56;93951.13;;;21.98;59.69
7335;BME280;3708;42.632;23.378;2023-06-10T00:44:23;93949.50;;;21.67;61.31
7335;BME280;3708;42.632;23.378;2023-06-10T00:46:50;93958.97;;;21.72;61.40
7335;BME280;3708;42.632;23.378;2023-06-10T00:49:20;93960.44;;;21.36;62.40
7335;BME280;3708;42.632;23.378;2023-06-10T00:51:49;93954.72;;;21.37;63.27
7335;BME280;3708;42.632;23.378;2023-06-10T00:54:17;93944.78;;;21.45;62.81
7335;BME280;3708;42.632;23.378;2023-06-10T00:56:48;93948.06;;;21.59;62.52
7335;BME280;3708;42.632;23.378;2023-06-10T00:59:15;93952.91;;;21.71;62.17
7335;BME280;3708;42.632;23.378;2023-06-10T01:01:42;93954.56;;;21.58;62.29
7335;BME280;3708;42.632;23.378;2023-06-10T01:04:12;93959.66;;;20.80;64.85
7335;BME280;3708;42.632;23.378;2023-06-10T01:06:45;93955.19;;;21.25;63.66
7335;BME280;3708;42.632;23.378;2023-06-10T01:09:21;93948.56;;;21.47;63.18
7335;BME280;3708;42.632;23.378;2023-06-10T01:11:53;93942.38;;;21.57;62.75
7335;BME280;3708;42.632;23.378;2023-06-10T01:14:23;93951.16;;;21.54;62.77
7335;BME280;3708;42.632;23.378;2023-06-10T01:16:51;93942.47;;;21.47;62.62
7335;BME280;3708;42.632;23.378;2023-06-10T01:19:18;93952.06;;;20.79;64.97
7335;BME280;3708;42.632;23.378;2023-06-10T01:21:47;93953.63;;;20.69;65.97
7335;BME280;3708;42.632;23.378;2023-06-10T01:24:14;93957.66;;;20.08;67.82
7335;BME280;3708;42.632;23.378;2023-06-10T01:26:45;93949.91;;;20.56;66.79
7335;BME280;3708;42.632;23.378;2023-06-10T01:29:17;93961.25;;;20.67;65.95
7335;BME280;3708;42.632;23.378;2023-06-10T01:31:49;93964.09;;;21.04;65.15
7335;BME280;3708;42.632;23.378;2023-06-10T01:34:19;93956.03;;;20.46;66.47
7335;BME280;3708;42.632;23.378;2023-06-10T01:36:48;93953.22;;;20.78;66.16
7335;BME280;3708;42.632;23.378;2023-06-10T01:39:17;93955.88;;;20.78;65.59
7335;BME280;3708;42.632;23.378;2023-06-10T01:41:48;93961.38;;;21.15;64.63
7335;BME280;3708;42.632;23.378;2023-06-10T01:44:17;93950.44;;;20.95;65.18
7335;BME280;3708;42.632;23.378;2023-06-10T01:46:44;93959.03;;;21.20;64.24
7335;BME280;3708;42.632;23.378;2023-06-10T01:49:12;93955.94;;;21.29;64.38
7335;BME280;3708;42.632;23.378;2023-06-10T01:51:38;93947.75;;;21.50;63.61
7335;BME280;3708;42.632;23.378;2023-06-10T01:54:07;93950.66;;;21.66;63.25
7335;BME280;3708;42.632;23.378;2023-06-10T01:56:34;93937.28;;;21.73;63.06
7335;BME280;3708;42.632;23.378;2023-06-10T01:59:01;93955.22;;;21.69;62.72
7335;BME280;3708;42.632;23.378;2023-06-10T02:01:28;93948.25;;;20.80;65.53
7335;BME280;3708;42.632;23.378;2023-06-10T02:03:55;93947.31;;;21.11;64.68
7335;BME280;3708;42.632;23.378;2023-06-10T02:06:22;93944.53;;;21.25;64.08
7335;BME280;3708;42.632;23.378;2023-06-10T02:08:50;93944.06;;;21.37;63.87
7335;BME280;3708;42.632;23.378;2023-06-10T02:11:18;93944.00;;;21.44;63.75
7335;BME280;3708;42.632;23.378;2023-06-10T02:13:46;93941.97;;;21.59;63.51
7335;BME280;3708;42.632;23.378;2023-06-10T02:16:14;93940.41;;;21.61;63.11
7335;BME280;3708;42.632;23.378;2023-06-10T02:18:42;93928.16;;;21.26;63.52
7335;BME280;3708;42.632;23.378;2023-06-10T02:21:09;93931.00;;;21.53;62.97
7335;BME280;3708;42.632;23.378;2023-06-10T02:23:36;93928.69;;;21.55;62.69
7335;BME280;3708;42.632;23.378;2023-06-10T02:26:03;93928.56;;;21.66;62.28
7335;BME280;3708;42.632;23.378;2023-06-10T02:28:31;93919.41;;;21.70;61.98
7335;BME280;3708;42.632;23.378;2023-06-10T02:30:58;93918.97;;;21.75;61.63
7335;BME280;3708;42.632;23.378;2023-06-10T02:33:25;93917.78;;;21.80;61.53
7335;BME280;3708;42.632;23.378;2023-06-10T02:35:52;93912.47;;;21.76;61.41
7335;BME280;3708;42.632;23.378;2023-06-10T02:38:19;93916.94;;;21.90;61.23
7335;BME280;3708;42.632;23.378;2023-06-10T02:40:46;93912.66;;;21.99;60.95
7335;BME280;3708;42.632;23.378;2023-06-10T02:43:13;93918.38;;;21.98;60.95
7335;BME280;3708;42.632;23.378;2023-06-10T02:45:57;93910.38;;;21.98;60.99
7335;BME280;3708;42.632;23.378;2023-06-10T02:48:41;93909.31;;;21.92;60.98
7335;BME280;3708;42.632;23.378;2023-06-10T02:51:39;93902.47;;;21.91;60.65
7335;BME280;3708;42.632;23.378;2023-06-10T02:54:12;93907.00;;;21.94;60.59
7335;BME280;3708;42.632;23.378;2023-06-10T02:57:05;93911.09;;;21.65;60.85
7335;BME280;3708;42.632;23.378;2023-06-10T02:59:43;93910.22;;;21.75;61.07
7335;BME280;3708;42.632;23.378;2023-06-10T03:02:32;93895.94;;;21.58;61.31
7335;BME280;3708;42.632;23.378;2023-06-10T03:05:08;93901.69;;;21.53;61.64
7335;BME280;3708;42.632;23.378;2023-06-10T03:07:49;93904.56;;;21.69;61.18
7335;BME280;3708;42.632;23.378;2023-06-10T03:10:21;93910.91;;;21.82;61.12
7335;BME280;3708;42.632;23.378;2023-06-10T03:12:48;93904.88;;;21.75;61.21
7335;BME280;3708;42.632;23.378;2023-06-10T03:15:15;93900.59;;;21.88;61.08
7335;BME280;3708;42.632;23.378;2023-06-10T03:17:44;93913.09;;;21.94;60.91
7335;BME280;3708;42.632;23.378;2023-06-10T03:20:15;93902.38;;;21.98;60.69
7335;BME280;3708;42.632;23.378;2023-06-10T03:22:44;93910.00;;;21.99;60.49
7335;BME280;3708;42.632;23.378;2023-06-10T03:25:11;93912.91;;;22.09;60.49
7335;BME280;3708;42.632;23.378;2023-06-10T03:27:39;93918.22;;;22.12;60.21
7335;BME280;3708;42.632;23.378;2023-06-10T03:30:07;93918.50;;;22.21;60.11
7335;BME280;3708;42.632;23.378;2023-06-10T03:32:34;93918.81;;;22.27;59.91
7335;BME280;3708;42.632;23.378;2023-06-10T03:35:04;93927.25;;;22.22;59.41
7335;BME280;3708;42.632;23.378;2023-06-10T03:37:35;93921.84;;;22.29;59.25
7335;BME280;3708;42.632;23.378;2023-06-10T03:40:02;93927.03;;;22.39;59.05
7335;BME280;3708;42.632;23.378;2023-06-10T03:42:34;93929.69;;;22.39;59.29
7335;BME280;3708;42.632;23.378;2023-06-10T03:45:02;93930.19;;;22.31;59.70
7335;BME280;3708;42.632;23.378;2023-06-10T03:47:33;93933.28;;;22.26;59.94
7335;BME280;3708;42.632;23.378;2023-06-10T03:50:07;93941.25;;;21.95;61.36
7335;BME280;3708;42.632;23.378;2023-06-10T03:52:35;93936.44;;;21.80;62.02
7335;BME280;3708;42.632;23.378;2023-06-10T03:55:02;93932.84;;;21.60;62.70
7335;BME280;3708;42.632;23.378;2023-06-10T03:57:30;93939.06;;;20.91;66.06
7335;BME280;3708;42.632;23.378;2023-06-10T03:59:57;93928.06;;;21.37;64.67
7335;BME280;3708;42.632;23.378;2023-06-10T04:02:24;93938.16;;;21.60;64.03
7335;BME280;3708;42.632;23.378;2023-06-10T04:04:51;93934.25;;;21.71;63.82
7335;BME280;3708;42.632;23.378;2023-06-10T04:07:19;93935.56;;;21.53;64.50
7335;BME280;3708;42.632;23.378;2023-06-10T04:09:47;93934.72;;;21.63;64.34
7335;BME280;3708;42.632;23.378;2023-06-10T04:12:14;93942.50;;;21.87;63.78
7335;BME280;3708;42.632;23.378;2023-06-10T04:14:42;93934.16;;;21.82;63.43
7335;BME280;3708;42.632;23.378;2023-06-10T04:17:09;93946.69;;;21.85;63.28
7335;BME280;3708;42.632;23.378;2023-06-10T04:19:36;93937.19;;;21.84;63.31
7335;BME280;3708;42.632;23.378;2023-06-10T04:22:04;93944.78;;;21.85;62.92
7335;BME280;3708;42.632;23.378;2023-06-10T04:24:32;93947.81;;;21.87;62.78
7335;BME280;3708;42.632;23.378;2023-06-10T04:26:59;93951.28;;;21.84;62.38
7335;BME280;3708;42.632;23.378;2023-06-10T04:29:26;93949.22;;;21.58;62.78
7335;BME280;3708;42.632;23.378;2023-06-10T04:31:53;93941.53;;;21.64;62.63
7335;BME280;3708;42.632;23.378;2023-06-10T04:34:20;93940.72;;;21.70;62.17
7335;BME280;3708;42.632;23.378;2023-06-10T04:36:47;93945.44;;;21.52;62.29
7335;BME280;3708;42.632;23.378;2023-06-10T04:39:15;93949.22;;;21.58;62.10
7335;BME280;3708;42.632;23.378;2023-06-10T04:41:43;93943.13;;;21.58;62.07
7335;BME280;3708;42.632;23.378;2023-06-10T04:44:29;93946.56;;;21.55;62.01
7335;BME280;3708;42.632;23.378;2023-06-10T04:46:56;93947.34;;;21.55;61.78
7335;BME280;3708;42.632;23.378;2023-06-10T04:49:23;93950.72;;;21.59;61.93
7335;BME280;3708;42.632;23.378;2023-06-10T04:51:50;93947.69;;;21.57;61.67
7335;BME280;3708;42.632;23.378;2023-06-10T04:54:17;93945.78;;;21.58;61.90
7335;BME280;3708;42.632;23.378;2023-06-10T04:56:45;93940.63;;;21.40;62.42
7335;BME280;3708;42.632;23.378;2023-06-10T04:59:12;93938.66;;;21.44;62.69
7335;BME280;3708;42.632;23.378;2023-06-10T05:01:39;93943.13;;;21.58;62.54
7335;BME280;3708;42.632;23.378;2023-06-10T05:04:06;93942.63;;;21.70;62.23
7335;BME280;3708;42.632;23.378;2023-06-10T05:06:33;93937.91;;;21.88;61.94
7335;BME280;3708;42.632;23.378;2023-06-10T05:09:01;93937.50;;;21.89;61.90
7335;BME280;3708;42.632;23.378;2023-06-10T05:11:28;93935.25;;;21.88;61.79
7335;BME280;3708;42.632;23.378;2023-06-10T05:13:57;93932.94;;;21.90;61.43
7335;BME280;3708;42.632;23.378;2023-06-10T05:16:24;93934.00;;;21.96;61.19
7335;BME280;3708;42.632;23.378;2023-06-10T05:18:50;93932.53;;;21.91;61.43
7335;BME280;3708;42.632;23.378;2023-06-10T05:21:18;93937.81;;;21.98;61.23
7335;BME280;3708;42.632;23.378;2023-06-10T05:23:46;93930.88;;;22.05;61.29
7335;BME280;3708;42.632;23.378;2023-06-10T05:26:13;93933.19;;;22.02;61.51
7335;BME280;3708;42.632;23.378;2023-06-10T05:28:40;93938.72;;;22.19;61.40
7335;BME280;3708;42.632;23.378;2023-06-10T05:31:08;93939.09;;;22.21;61.52
7335;BME280;3708;42.632;23.378;2023-06-10T05:33:35;93938.81;;;22.42;61.09
7335;BME280;3708;42.632;23.378;2023-06-10T05:36:02;93944.53;;;22.44;60.44
7335;BME280;3708;42.632;23.378;2023-06-10T05:38:29;93935.38;;;22.45;60.03
7335;BME280;3708;42.632;23.378;2023-06-10T05:40:56;93938.63;;;22.59;60.14
7335;BME280;3708;42.632;23.378;2023-06-10T05:43:24;93943.13;;;22.66;59.82
7335;BME280;3708;42.632;23.378;2023-06-10T05:45:51;93943.50;;;22.64;59.62
7335;BME280;3708;42.632;23.378;2023-06-10T05:48:19;93943.41;;;22.71;59.54
7335;BME280;3708;42.632;23.378;2023-06-10T05:50:46;93953.56;;;22.84;59.30
7335;BME280;3708;42.632;23.378;2023-06-10T05:53:14;93944.72;;;22.90;59.58
7335;BME280;3708;42.632;23.378;2023-06-10T05:55:41;93950.97;;;23.03;59.70
7335;BME280;3708;42.632;23.378;2023-06-10T05:58:09;93946.13;;;23.21;59.33
7335;BME280;3708;42.632;23.378;2023-06-10T06:00:37;93949.09;;;23.27;58.41
7335;BME280;3708;42.632;23.378;2023-06-10T06:03:06;93953.22;;;23.31;58.19
7335;BME280;3708;42.632;23.378;2023-06-10T06:05:34;93958.94;;;23.33;58.24
7335;BME280;3708;42.632;23.378;2023-06-10T06:08:03;93963.97;;;23.55;58.15
7335;BME280;3708;42.632;23.378;2023-06-10T06:10:30;93963.38;;;23.67;57.67
7335;BME280;3708;42.632;23.378;2023-06-10T06:12:57;93967.88;;;23.23;58.05
7335;BME280;3708;42.632;23.378;2023-06-10T06:15:24;93954.81;;;23.02;58.54
7335;BME280;3708;42.632;23.378;2023-06-10T06:17:51;93957.81;;;22.81;59.78
7335;BME280;3708;42.632;23.378;2023-06-10T06:20:19;93965.09;;;22.43;61.39
7335;BME280;3708;42.632;23.378;2023-06-10T06:22:47;93952.03;;;21.81;63.21
7335;BME280;3708;42.632;23.378;2023-06-10T06:25:15;93954.72;;;22.19;62.67
7335;BME280;3708;42.632;23.378;2023-06-10T06:27:42;93949.66;;;22.28;61.93
7335;BME280;3708;42.632;23.378;2023-06-10T06:30:09;93946.31;;;22.20;62.36
7335;BME280;3708;42.632;23.378;2023-06-10T06:32:37;93950.06;;;22.26;62.84
7335;BME280;3708;42.632;23.378;2023-06-10T06:35:04;93951.53;;;22.31;62.05
7335;BME280;3708;42.632;23.378;2023-06-10T06:37:33;93946.47;;;21.69;64.52
7335;BME280;3708;42.632;23.378;2023-06-10T06:40:03;93949.78;;;21.80;64.45
7335;BME280;3708;42.632;23.378;2023-06-10T06:42:30;93948.09;;;21.96;64.06
7335;BME280;3708;42.632;23.378;2023-06-10T06:44:57;93950.81;;;22.27;63.56
7335;BME280;3708;42.632;23.378;2023-06-10T06:47:25;93948.97;;;21.86;64.88
7335;BME280;3708;42.632;23.378;2023-06-10T06:49:59;93943.44;;;21.63;64.51
7335;BME280;3708;42.632;23.378;2023-06-10T06:52:28;93942.03;;;21.52;66.75
7335;BME280;3708;42.632;23.378;2023-06-10T06:54:55;93944.19;;;22.08;64.53
7335;BME280;3708;42.632;23.378;2023-06-10T06:57:24;93945.84;;;21.95;65.24
7335;BME280;3708;42.632;23.378;2023-06-10T06:59:51;93939.84;;;21.80;65.76
7335;BME280;3708;42.632;23.378;2023-06-10T07:02:19;93944.44;;;22.51;63.84
7335;BME280;3708;42.632;23.378;2023-06-10T07:04:45;93938.53;;;22.36;63.33
7335;BME280;3708;42.632;23.378;2023-06-10T07:07:14;93935.53;;;22.91;62.43
7335;BME280;3708;42.632;23.378;2023-06-10T07:09:41;93938.28;;;23.11;61.27
7335;BME280;3708;42.632;23.378;2023-06-10T07:12:08;93936.16;;;23.25;60.03
7335;BME280;3708;42.632;23.378;2023-06-10T07:14:37;93949.72;;;23.11;60.19
7335;BME280;3708;42.632;23.378;2023-06-10T07:17:04;93935.22;;;23.39;59.33
7335;BME280;3708;42.632;23.378;2023-06-10T07:19:31;93929.81;;;22.62;61.59
7335;BME280;3708;42.632;23.378;2023-06-10T07:21:57;93929.22;;;22.48;62.43
7335;BME280;3708;42.632;23.378;2023-06-10T07:24:24;93929.94;;;23.09;60.72
7335;BME280;3708;42.632;23.378;2023-06-10T07:26:51;93928.47;;;23.04;60.36
7335;BME280;3708;42.632;23.378;2023-06-10T07:29:18;93925.28;;;23.13;59.25
7335;BME280;3708;42.632;23.378;2023-06-10T07:31:46;93926.56;;;22.78;58.86
7335;BME280;3708;42.632;23.378;2023-06-10T07:34:13;93928.13;;;23.25;57.51
7335;BME280;3708;42.632;23.378;2023-06-10T07:36:40;93925.00;;;23.77;55.78
7335;BME280;3708;42.632;23.378;2023-06-10T07:39:07;93922.50;;;24.48;53.98
7335;BME280;3708;42.632;23.378;2023-06-10T07:41:34;93929.34;;;24.88;53.12
7335;BME280;3708;42.632;23.378;2023-06-10T07:44:01;93931.69;;;24.86;51.23
7335;BME280;3708;42.632;23.378;2023-06-10T07:46:28;93930.34;;;25.11;50.44
7335;BME280;3708;42.632;23.378;2023-06-10T07:49:16;93931.81;;;25.47;49.64
7335;BME280;3708;42.632;23.378;2023-06-10T07:51:43;93936.91;;;24.54;50.84
7335;BME280;3708;42.632;23.378;2023-06-10T07:54:09;93929.06;;;25.51;49.51
7335;BME280;3708;42.632;23.378;2023-06-10T07:56:37;93920.56;;;26.13;48.34
7335;BME280;3708;42.632;23.378;2023-06-10T07:59:04;93926.84;;;25.78;47.26
7335;BME280;3708;42.632;23.378;2023-06-10T08:01:31;93930.13;;;25.69;47.91
7335;BME280;3708;42.632;23.378;2023-06-10T08:03:58;93933.06;;;24.75;49.70
7335;BME280;3708;42.632;23.378;2023-06-10T08:06:26;93926.53;;;25.44;47.80
7335;BME280;3708;42.632;23.378;2023-06-10T08:08:53;93921.13;;;25.76;47.11
7335;BME280;3708;42.632;23.378;2023-06-10T08:11:20;93926.25;;;26.15;46.23
7335;BME280;3708;42.632;23.378;2023-06-10T08:13:47;93920.00;;;26.47;44.65
7335;BME280;3708;42.632;23.378;2023-06-10T08:16:13;93924.63;;;26.59;44.81
7335;BME280;3708;42.632;23.378;2023-06-10T08:18:41;93928.69;;;25.65;45.88
7335;BME280;3708;42.632;23.378;2023-06-10T08:21:07;93929.34;;;25.69;45.80
7335;BME280;3708;42.632;23.378;2023-06-10T08:23:36;93919.78;;;26.41;44.53
7335;BME280;3708;42.632;23.378;2023-06-10T08:26:02;93916.16;;;26.61;44.06
7335;BME280;3708;42.632;23.378;2023-06-10T08:28:29;93907.22;;;26.51;44.53
7335;BME280;3708;42.632;23.378;2023-06-10T08:30:56;93909.50;;;26.11;44.41
7335;BME280;3708;42.632;23.378;2023-06-10T08:33:23;93906.13;;;25.79;43.88
7335;BME280;3708;42.632;23.378;2023-06-10T08:35:50;93905.81;;;26.46;43.56
7335;BME280;3708;42.632;23.378;2023-06-10T08:38:17;93903.75;;;26.92;43.00
7335;BME280;3708;42.632;23.378;2023-06-10T08:40:47;93901.69;;;26.17;44.55
7335;BME280;3708;42.632;23.378;2023-06-10T08:43:18;93910.44;;;25.12;46.90
7335;BME280;3708;42.632;23.378;2023-06-10T08:45:49;93912.00;;;25.41;45.77
7335;BME280;3708;42.632;23.378;2023-06-10T08:48:19;93905.47;;;25.75;43.95
7335;BME280;3708;42.632;23.378;2023-06-10T08:50:47;93910.53;;;25.56;41.14
7335;BME280;3708;42.632;23.378;2023-06-10T08:53:18;93899.16;;;26.38;39.27
7335;BME280;3708;42.632;23.378;2023-06-10T08:55:50;93904.41;;;25.56;39.78
7335;BME280;3708;42.632;23.378;2023-06-10T08:58:18;93898.50;;;25.77;39.81
7335;BME280;3708;42.632;23.378;2023-06-10T09:00:46;93890.94;;;26.17;39.55
7335;BME280;3708;42.632;23.378;2023-06-10T09:03:12;93889.16;;;26.39;37.80
7335;BME280;3708;42.632;23.378;2023-06-10T09:05:40;93894.59;;;26.77;38.60
7335;BME280;3708;42.632;23.378;2023-06-10T09:08:07;93890.28;;;27.30;38.89
7335;BME280;3708;42.632;23.378;2023-06-10T09:10:34;93882.97;;;27.30;39.12
7335;BME280;3708;42.632;23.378;2023-06-10T09:13:02;93882.38;;;27.94;40.14
7335;BME280;3708;42.632;23.378;2023-06-10T09:15:29;93882.41;;;28.68;39.82
7335;BME280;3708;42.632;23.378;2023-06-10T09:17:56;93879.47;;;29.15;35.43
7335;BME280;3708;42.632;23.378;2023-06-10T09:20:25;93882.78;;;29.19;35.45
7335;BME280;3708;42.632;23.378;2023-06-10T09:22:52;93872.81;;;29.56;34.11
7335;BME280;3708;42.632;23.378;2023-06-10T09:25:21;93877.06;;;29.84;33.59
7335;BME280;3708;42.632;23.378;2023-06-10T09:28:00;93879.69;;;29.39;32.80
7335;BME280;3708;42.632;23.378;2023-06-10T09:30:32;93880.44;;;29.00;33.15
7335;BME280;3708;42.632;23.378;2023-06-10T09:33:02;93872.34;;;29.30;33.58
7335;BME280;3708;42.632;23.378;2023-06-10T09:35:30;93873.63;;;29.17;33.18
7335;BME280;3708;42.632;23.378;2023-06-10T09:37:59;93871.38;;;29.15;33.08
7335;BME280;3708;42.632;23.378;2023-06-10T09:40:27;93873.06;;;29.31;32.89
7335;BME280;3708;42.632;23.378;2023-06-10T09:42:57;93870.88;;;29.48;33.73
7335;BME280;3708;42.632;23.378;2023-06-10T09:45:30;93864.09;;;29.34;33.88
7335;BME280;3708;42.632;23.378;2023-06-10T09:47:58;93867.88;;;29.73;34.08
7335;BME280;3708;42.632;23.378;2023-06-10T09:50:25;93861.91;;;29.96;34.16
7335;BME280;3708;42.632;23.378;2023-06-10T09:52:52;93869.38;;;29.56;33.93
7335;BME280;3708;42.632;23.378;2023-06-10T09:55:19;93869.97;;;29.69;34.30
7335;BME280;3708;42.632;23.378;2023-06-10T09:57:49;93861.88;;;30.14;33.00
7335;BME280;3708;42.632;23.378;2023-06-10T10:00:16;93847.81;;;29.74;32.00
7335;BME280;3708;42.632;23.378;2023-06-10T10:02:49;93857.19;;;29.42;32.23
7335;BME280;3708;42.632;23.378;2023-06-10T10:05:17;93859.31;;;29.56;33.17
7335;BME280;3708;42.632;23.378;2023-06-10T10:07:45;93859.00;;;29.63;32.85
7335;BME280;3708;42.632;23.378;2023-06-10T10:10:13;93844.47;;;29.52;32.92
7335;BME280;3708;42.632;23.378;2023-06-10T10:12:41;93837.75;;;29.74;33.54
7335;BME280;3708;42.632;23.378;2023-06-10T10:15:10;93828.13;;;30.00;33.30
7335;BME280;3708;42.632;23.378;2023-06-10T10:17:40;93827.38;;;30.18;31.90
7335;BME280;3708;42.632;23.378;2023-06-10T10:20:13;93828.44;;;30.02;32.00
7335;BME280;3708;42.632;23.378;2023-06-10T10:22:43;93828.72;;;30.32;31.08
7335;BME280;3708;42.632;23.378;2023-06-10T10:25:11;93824.84;;;30.14;31.12
7335;BME280;3708;42.632;23.378;2023-06-10T10:27:44;93827.13;;;29.80;32.08
7335;BME280;3708;42.632;23.378;2023-06-10T10:30:12;93828.56;;;30.35;33.57
7335;BME280;3708;42.632;23.378;2023-06-10T10:32:46;93826.38;;;30.99;32.54
7335;BME280;3708;42.632;23.378;2023-06-10T10:35:17;93824.34;;;31.65;30.60
7335;BME280;3708;42.632;23.378;2023-06-10T10:37:44;93832.38;;;31.98;30.43
7335;BME280;3708;42.632;23.378;2023-06-10T10:40:12;93830.28;;;31.93;29.26
7335;BME280;3708;42.632;23.378;2023-06-10T10:42:40;93820.41;;;32.19;30.30
7335;BME280;3708;42.632;23.378;2023-06-10T10:45:09;93820.44;;;32.48;30.65
7335;BME280;3708;42.632;23.378;2023-06-10T10:47:36;93826.09;;;32.79;29.29
7335;BME280;3708;42.632;23.378;2023-06-10T10:50:15;93807.78;;;32.74;28.99
7335;BME280;3708;42.632;23.378;2023-06-10T10:52:55;93820.16;;;32.95;27.67
7335;BME280;3708;42.632;23.378;2023-06-10T10:55:22;93812.47;;;32.45;28.08
7335;BME280;3708;42.632;23.378;2023-06-10T10:57:54;93812.66;;;32.26;27.16
7335;BME280;3708;42.632;23.378;2023-06-10T11:00:29;93810.94;;;31.47;29.11
7335;BME280;3708;42.632;23.378;2023-06-10T11:03:04;93803.31;;;31.60;30.25
7335;BME280;3708;42.632;23.378;2023-06-10T11:05:37;93804.34;;;32.45;29.89
7335;BME280;3708;42.632;23.378;2023-06-10T11:08:07;93795.13;;;32.86;28.55
7335;BME280;3708;42.632;23.378;2023-06-10T11:10:34;93798.28;;;33.54;27.18
7335;BME280;3708;42.632;23.378;2023-06-10T11:13:06;93799.78;;;33.55;27.62
7335;BME280;3708;42.632;23.378;2023-06-10T11:15:40;93792.47;;;33.87;27.73
7335;BME280;3708;42.632;23.378;2023-06-10T11:18:11;93776.22;;;33.66;27.15
7335;BME280;3708;42.632;23.378;2023-06-10T11:20:55;93788.84;;;33.29;28.33
7335;BME280;3708;42.632;23.378;2023-06-10T11:23:30;93773.91;;;33.59;28.15
7335;BME280;3708;42.632;23.378;2023-06-10T11:26:11;93778.25;;;33.97;27.05
7335;BME280;3708;42.632;23.378;2023-06-10T11:28:37;93772.66;;;34.32;26.71
7335;BME280;3708;42.632;23.378;2023-06-10T11:31:04;93765.75;;;34.62;25.47
7335;BME280;3708;42.632;23.378;2023-06-10T11:33:32;93772.03;;;34.17;26.10
7335;BME280;3708;42.632;23.378;2023-06-10T11:35:59;93774.34;;;33.78;26.93
7335;BME280;3708;42.632;23.378;2023-06-10T11:38:28;93769.38;;;33.97;26.92
7335;BME280;3708;42.632;23.378;2023-06-10T11:40:55;93765.97;;;33.56;26.44
7335;BME280;3708;42.632;23.378;2023-06-10T11:43:22;93770.06;;;32.12;27.91
7335;BME280;3708;42.632;23.378;2023-06-10T11:45:54;93766.84;;;32.28;28.51
7335;BME280;3708;42.632;23.378;2023-06-10T11:48:21;93770.00;;;32.71;28.76
7335;BME280;3708;42.632;23.378;2023-06-10T11:50:48;93767.50;;;33.02;27.76
7335;BME280;3708;42.632;23.378;2023-06-10T11:53:15;93756.94;;;33.44;27.24
7335;BME280;3708;42.632;23.378;2023-06-10T11:55:45;93750.53;;;33.67;25.84
7335;BME280;3708;42.632;23.378;2023-06-10T11:58:13;93756.41;;;33.40;26.48
7335;BME280;3708;42.632;23.378;2023-06-10T12:01:00;93753.13;;;33.16;27.76
7335;BME280;3708;42.632;23.378;2023-06-10T12:03:35;93759.53;;;32.98;27.76
7335;BME280;3708;42.632;23.378;2023-06-10T12:06:04;93758.16;;;33.03;27.21
7335;BME280;3708;42.632;23.378;2023-06-10T12:08:31;93760.03;;;33.17;26.64
7335;BME280;3708;42.632;23.378;2023-06-10T12:11:00;93746.19;;;32.95;26.64
7335;BME280;3708;42.632;23.378;2023-06-10T12:13:28;93755.75;;;32.26;26.99
7335;BME280;3708;42.632;23.378;2023-06-10T12:15:55;93753.31;;;32.43;26.94
7335;BME280;3708;42.632;23.378;2023-06-10T12:18:32;93750.97;;;32.51;27.25
7335;BME280;3708;42.632;23.378;2023-06-10T12:21:00;93747.94;;;32.78;27.24
7335;BME280;3708;42.632;23.378;2023-06-10T12:23:29;93741.28;;;32.79;26.57
7335;BME280;3708;42.632;23.378;2023-06-10T12:25:56;93741.88;;;33.03;26.27
7335;BME280;3708;42.632;23.378;2023-06-10T12:28:26;93736.06;;;32.95;26.25
7335;BME280;3708;42.632;23.378;2023-06-10T12:31:08;93739.78;;;32.78;25.80
7335;BME280;3708;42.632;23.378;2023-06-10T12:33:35;93742.03;;;32.79;26.09
7335;BME280;3708;42.632;23.378;2023-06-10T12:36:02;93737.41;;;32.85;27.08
7335;BME280;3708;42.632;23.378;2023-06-10T12:38:29;93733.06;;;33.08;26.85
7335;BME280;3708;42.632;23.378;2023-06-10T12:41:01;93737.25;;;33.09;26.96
7335;BME280;3708;42.632;23.378;2023-06-10T12:43:31;93731.53;;;33.47;27.70
7335;BME280;3708;42.632;23.378;2023-06-10T12:46:08;93725.44;;;32.57;27.78
7335;BME280;3708;42.632;23.378;2023-06-10T12:48:35;93718.31;;;32.10;28.03
7335;BME280;3708;42.632;23.378;2023-06-10T12:51:02;93717.50;;;32.54;27.97
7335;BME280;3708;42.632;23.378;2023-06-10T12:53:31;93713.88;;;31.84;28.13
7335;BME280;3708;42.632;23.378;2023-06-10T12:55:58;93719.31;;;31.98;28.80
7335;BME280;3708;42.632;23.378;2023-06-10T12:58:29;93717.44;;;32.33;28.25
7335;BME280;3708;42.632;23.378;2023-06-10T13:00:55;93721.91;;;32.51;27.21
7335;BME280;3708;42.632;23.378;2023-06-10T13:03:22;93714.59;;;32.43;27.25
7335;BME280;3708;42.632;23.378;2023-06-10T13:05:49;93721.34;;;32.47;26.95
7335;BME280;3708;42.632;23.378;2023-06-10T13:08:16;93715.09;;;32.41;27.76
7335;BME280;3708;42.632;23.378;2023-06-10T13:10:43;93722.22;;;32.09;28.36
7335;BME280;3708;42.632;23.378;2023-06-10T13:13:09;93723.31;;;31.59;29.67
7335;BME280;3708;42.632;23.378;2023-06-10T13:15:38;93729.22;;;31.72;29.00
7335;BME280;3708;42.632;23.378;2023-06-10T13:18:05;93716.44;;;31.34;29.66